createdAt,value
2018-10-18T00:02:17.440Z,98874.44
2018-10-18T00:04:45.490Z,98872.67
2018-10-18T00:07:12.921Z,98868.67
2018-10-18T00:09:40.973Z,98877.75
2018-10-18T00:14:58.456Z,98877.20
2018-10-18T00:17:33.167Z,98861.95
2018-10-18T00:22:53.030Z,98864.25
2018-10-18T00:25:22.448Z,98861.08
2018-10-18T00:27:49.941Z,98857.97
2018-10-18T00:30:17.547Z,98861.05
2018-10-18T00:32:45.058Z,98852.78
2018-10-18T00:35:14.977Z,98852.50
2018-10-18T00:37:42.677Z,98855.13
2018-10-18T00:40:11.463Z,98845.41
2018-10-18T00:42:39.048Z,98851.05
2018-10-18T00:45:07.125Z,98846.28
2018-10-18T00:47:34.727Z,98848.88
2018-10-18T00:50:05.542Z,98843.17
2018-10-18T00:52:36.416Z,98844.97
2018-10-18T00:55:05.185Z,98848.49
2018-10-18T00:57:34.690Z,98851.89
2018-10-18T01:00:04.764Z,98844.70
2018-10-18T01:02:32.242Z,98847.43
2018-10-18T01:05:01.342Z,98845.95
2018-10-18T01:07:29.342Z,98845.44
2018-10-18T01:09:56.743Z,98846.20
2018-10-18T01:12:24.907Z,98842.73
2018-10-18T01:14:52.251Z,98840.94
2018-10-18T01:17:19.591Z,98844.89
2018-10-18T01:19:47.719Z,98847.06
2018-10-18T01:22:16.755Z,98848.86
2018-10-18T01:24:45.222Z,98851.20
2018-10-18T01:27:12.606Z,98854.03
2018-10-18T01:29:39.962Z,98856.44
2018-10-18T01:32:07.507Z,98852.17
2018-10-18T01:34:35.475Z,98859.78
2018-10-18T01:37:04.538Z,98863.87
2018-10-18T01:39:34.177Z,98851.72
2018-10-18T01:42:01.937Z,98857.95
2018-10-18T01:44:29.244Z,98853.81
2018-10-18T01:46:56.615Z,98856.09
2018-10-18T01:49:24.174Z,98857.02
2018-10-18T01:52:14.792Z,98851.40
2018-10-18T01:54:45.195Z,98853.08
2018-10-18T01:57:15.798Z,98852.64
2018-10-18T01:59:43.338Z,98850.90
2018-10-18T02:02:10.829Z,98854.02
2018-10-18T02:04:39.328Z,98849.67
2018-10-18T02:07:07.027Z,98851.45
2018-10-18T02:09:34.583Z,98839.25
2018-10-18T02:12:02.439Z,98844.00
2018-10-18T02:14:31.073Z,98839.17
2018-10-18T02:16:58.656Z,98840.06
2018-10-18T02:19:26.187Z,98839.95
2018-10-18T02:21:54.415Z,98840.77
2018-10-18T02:24:23.891Z,98849.73
2018-10-18T02:26:54.165Z,98849.23
2018-10-18T02:29:23.662Z,98842.34
2018-10-18T02:31:53.464Z,98839.62
2018-10-18T02:34:22.810Z,98840.46
2018-10-18T02:36:50.534Z,98843.00
2018-10-18T02:39:18.073Z,98844.27
2018-10-18T02:41:46.199Z,98838.95
2018-10-18T02:44:14.235Z,98838.59
2018-10-18T02:46:41.800Z,98837.75
2018-10-18T02:49:09.517Z,98843.87
2018-10-18T02:51:36.950Z,98845.16
2018-10-18T02:54:05.414Z,98842.47
2018-10-18T02:56:32.847Z,98842.86
2018-10-18T02:59:03.122Z,98846.47
2018-10-18T03:01:32.996Z,98850.55
2018-10-18T03:04:00.798Z,98851.97
2018-10-18T03:06:28.408Z,98854.73
2018-10-18T03:08:56.585Z,98853.95
2018-10-18T03:11:24.336Z,98861.40
2018-10-18T03:13:51.712Z,98854.86
2018-10-18T03:16:20.789Z,98853.67
2018-10-18T03:18:50.503Z,98850.22
2018-10-18T03:21:19.315Z,98853.31
2018-10-18T03:23:48.978Z,98855.93
2018-10-18T03:26:16.514Z,98857.20
2018-10-18T03:28:44.929Z,98860.66
2018-10-18T03:31:13.543Z,98865.03
2018-10-18T03:33:41.015Z,98860.71
2018-10-18T03:36:08.535Z,98861.52
2018-10-18T03:38:36.215Z,98863.28
2018-10-18T03:41:04.120Z,98863.68
2018-10-18T03:43:32.122Z,98863.59
2018-10-18T03:45:59.552Z,98865.31
2018-10-18T03:48:30.740Z,98865.75
2018-10-18T03:50:58.816Z,98863.59
2018-10-18T03:53:28.515Z,98871.55
2018-10-18T03:55:56.030Z,98865.88
2018-10-18T03:58:23.402Z,98863.73
2018-10-18T04:00:50.968Z,98861.97
2018-10-18T04:03:19.413Z,98865.86
2018-10-18T04:05:46.997Z,98865.36
2018-10-18T04:08:14.536Z,98865.75
2018-10-18T04:10:42.652Z,98868.33
2018-10-18T04:13:11.432Z,98867.91
2018-10-18T04:15:38.773Z,98867.04
2018-10-18T04:18:06.673Z,98867.04
2018-10-18T04:20:34.149Z,98863.50
2018-10-18T04:23:04.859Z,98870.89
2018-10-18T04:25:34.026Z,98869.59
2018-10-18T04:28:06.697Z,98874.81
2018-10-18T04:30:35.732Z,98866.88
2018-10-18T04:33:04.890Z,98872.08
2018-10-18T04:35:32.595Z,98876.83
2018-10-18T04:38:00.159Z,98876.41
2018-10-18T04:40:28.745Z,98878.20
2018-10-18T04:42:56.316Z,98873.86
2018-10-18T04:45:24.014Z,98881.45
2018-10-18T04:47:53.051Z,98877.22
2018-10-18T04:50:21.643Z,98881.99
2018-10-18T04:52:53.319Z,98876.77
2018-10-18T04:55:20.715Z,98881.99
2018-10-18T04:57:48.066Z,98885.48
2018-10-18T05:00:16.293Z,98889.37
2018-10-18T05:02:44.342Z,98889.81
2018-10-18T05:05:23.097Z,98892.42
2018-10-18T05:07:50.493Z,98892.39
2018-10-18T05:10:18.112Z,98895.86
2018-10-18T05:12:45.648Z,98898.45
2018-10-18T05:15:14.592Z,98899.33
2018-10-18T05:17:43.167Z,98900.52
2018-10-18T05:20:13.981Z,98907.41
2018-10-18T05:22:42.520Z,98913.95
2018-10-18T05:25:10.622Z,98918.26
2018-10-18T05:27:39.433Z,98915.55
2018-10-18T05:30:09.348Z,98918.14
2018-10-18T05:32:38.840Z,98917.23
2018-10-18T05:35:06.904Z,98921.08
2018-10-18T05:37:46.711Z,98924.94
2018-10-18T05:40:16.575Z,98933.63
2018-10-18T05:42:45.142Z,98934.47
2018-10-18T05:45:18.435Z,98937.43
2018-10-18T05:47:47.439Z,98938.66
2018-10-18T05:50:17.882Z,98940.33
2018-10-18T05:52:49.730Z,98951.17
2018-10-18T05:55:18.102Z,98945.86
2018-10-18T05:57:52.908Z,98944.00
2018-10-18T06:00:23.036Z,98944.81
2018-10-18T06:02:51.413Z,98947.82
2018-10-18T06:05:20.771Z,98942.56
2018-10-18T06:07:54.037Z,98950.03
2018-10-18T06:10:33.552Z,98957.50
2018-10-18T06:13:02.556Z,98960.12
2018-10-18T06:15:40.256Z,98966.28
2018-10-18T06:18:09.960Z,98972.41
2018-10-18T06:20:38.583Z,98975.00
2018-10-18T06:23:06.940Z,98978.47
2018-10-18T06:25:34.839Z,98976.20
2018-10-18T06:28:02.819Z,98980.95
2018-10-18T06:30:30.728Z,98977.77
2018-10-18T06:32:59.064Z,98984.19
2018-10-18T06:35:26.920Z,98979.22
2018-10-18T06:37:55.538Z,98983.86
2018-10-18T06:40:24.579Z,98982.80
2018-10-18T06:42:53.164Z,98983.10
2018-10-18T06:45:21.453Z,98985.63
2018-10-18T06:47:51.128Z,98990.78
2018-10-18T06:50:19.863Z,98996.81
2018-10-18T06:52:47.502Z,98992.83
2018-10-18T06:55:16.393Z,98995.39
2018-10-18T06:57:45.545Z,98989.22
2018-10-18T07:00:21.223Z,98994.00
2018-10-18T07:02:49.165Z,98996.11
2018-10-18T07:05:17.487Z,99000.32
2018-10-18T07:07:46.400Z,99004.05
2018-10-18T07:10:14.557Z,99001.20
2018-10-18T07:12:43.017Z,98997.06
2018-10-18T07:15:12.977Z,99002.55
2018-10-18T07:17:41.816Z,99000.61
2018-10-18T07:20:11.361Z,98998.27
2018-10-18T07:22:39.558Z,99006.09
2018-10-18T07:25:12.549Z,99009.59
2018-10-18T07:27:41.446Z,99015.19
2018-10-18T07:30:11.581Z,99024.28
2018-10-18T07:32:39.702Z,99016.25
2018-10-18T07:35:08.405Z,99025.77
2018-10-18T07:37:35.999Z,99025.41
2018-10-18T07:40:03.874Z,99024.05
2018-10-18T07:42:31.289Z,99022.77
2018-10-18T07:45:00.363Z,99021.62
2018-10-18T07:47:28.446Z,99022.23
2018-10-18T07:49:56.159Z,99026.86
2018-10-18T07:52:23.703Z,99031.31
2018-10-18T07:54:52.058Z,99038.55
2018-10-18T07:57:20.042Z,99041.66
2018-10-18T07:59:48.147Z,99040.85
2018-10-18T08:02:16.277Z,99046.42
2018-10-18T08:04:44.283Z,99039.88
2018-10-18T08:07:13.861Z,99047.30
2018-10-18T08:09:44.233Z,99047.75
2018-10-18T08:12:13.026Z,99048.81
2018-10-18T08:14:41.946Z,99054.12
2018-10-18T08:17:10.786Z,99051.95
2018-10-18T08:19:41.063Z,99049.86
2018-10-18T08:22:09.728Z,99048.44
2018-10-18T08:24:38.217Z,99047.83
2018-10-18T08:27:06.847Z,99048.48
2018-10-18T08:29:34.730Z,99046.66
2018-10-18T08:32:04.311Z,99046.30
2018-10-18T08:34:31.982Z,99051.48
2018-10-18T08:37:00.732Z,99050.81
2018-10-18T08:39:28.807Z,99053.64
2018-10-18T08:41:56.606Z,99046.16
2018-10-18T08:44:24.486Z,99045.70
2018-10-18T08:46:52.828Z,99046.70
2018-10-18T08:49:21.078Z,99054.36
2018-10-18T08:51:48.964Z,99050.06
2018-10-18T08:54:17.703Z,99060.27
2018-10-18T08:57:20.763Z,99048.31
2018-10-18T08:59:48.263Z,99046.23
2018-10-18T09:02:15.774Z,99051.42
2018-10-18T09:04:43.842Z,99053.27
2018-10-18T09:07:11.412Z,99052.91
2018-10-18T09:09:39.731Z,99049.05
2018-10-18T09:12:07.333Z,99050.74
2018-10-18T09:14:34.940Z,99046.75
2018-10-18T09:17:02.937Z,99043.75
2018-10-18T09:19:31.790Z,99042.42
2018-10-18T09:21:59.997Z,99046.55
2018-10-18T09:24:28.588Z,99048.98
2018-10-18T09:26:56.197Z,99044.66
2018-10-18T09:29:23.872Z,99040.95
2018-10-18T09:31:52.113Z,99036.16
2018-10-18T09:34:19.627Z,99037.43
2018-10-18T09:36:47.064Z,99038.44
2018-10-18T09:39:15.385Z,99037.67
2018-10-18T09:41:43.871Z,99037.97
2018-10-18T09:44:11.573Z,99039.88
2018-10-18T09:46:39.143Z,99044.39
2018-10-18T09:49:06.759Z,99036.95
2018-10-18T09:51:34.844Z,99038.34
2018-10-18T09:54:03.026Z,99036.98
2018-10-18T09:56:31.251Z,99034.30
2018-10-18T09:58:58.768Z,99037.42
2018-10-18T10:01:32.184Z,99038.83
2018-10-18T10:04:01.995Z,99037.03
2018-10-18T10:06:31.272Z,99031.11
2018-10-18T10:09:01.409Z,99032.30
2018-10-18T10:11:30.109Z,99025.03
2018-10-18T10:13:58.431Z,99028.80
2018-10-18T10:16:26.542Z,99021.83
2018-10-18T10:18:54.230Z,99026.44
2018-10-18T10:21:22.049Z,99027.51
2018-10-18T10:23:49.547Z,99027.66
2018-10-18T10:26:17.041Z,99025.67
2018-10-18T10:28:45.328Z,99024.72
2018-10-18T10:31:13.333Z,99020.33
2018-10-18T10:33:40.908Z,99017.72
2018-10-18T10:36:08.581Z,99018.52
2018-10-18T10:38:36.788Z,99014.11
2018-10-18T10:41:04.692Z,99015.20
2018-10-18T10:43:32.295Z,99023.95
2018-10-18T10:45:59.967Z,99017.89
2018-10-18T10:48:27.799Z,99017.98
2018-10-18T10:50:55.757Z,99021.83
2018-10-18T10:53:23.774Z,99026.99
2018-10-18T10:55:52.474Z,99032.72
2018-10-18T10:58:21.988Z,99024.74
2018-10-18T11:01:09.389Z,99031.75
2018-10-18T11:03:39.246Z,99032.58
2018-10-18T11:06:09.118Z,99034.70
2018-10-18T11:08:40.206Z,99026.80
2018-10-18T11:11:11.408Z,99029.94
2018-10-18T11:13:40.741Z,99028.71
2018-10-18T11:16:11.337Z,99039.45
2018-10-18T11:18:39.707Z,99040.27
2018-10-18T11:21:08.435Z,99041.56
2018-10-18T11:23:36.078Z,99034.01
2018-10-18T11:26:03.924Z,99029.62
2018-10-18T11:28:31.477Z,99029.80
2018-10-18T11:31:00.702Z,99031.09
2018-10-18T11:33:28.943Z,99031.50
2018-10-18T11:35:56.836Z,99036.12
2018-10-18T11:38:26.378Z,99024.84
2018-10-18T11:40:56.559Z,99025.14
2018-10-18T11:43:28.088Z,99026.47
2018-10-18T11:45:58.720Z,99027.11
2018-10-18T11:48:31.534Z,99026.47
2018-10-18T11:51:01.234Z,99025.00
2018-10-18T11:53:32.608Z,99027.19
2018-10-18T11:56:00.928Z,99027.80
2018-10-18T11:58:31.880Z,99021.08
2018-10-18T12:01:01.178Z,99022.20
2018-10-18T12:03:32.280Z,99018.28
2018-10-18T12:06:01.102Z,99020.47
2018-10-18T12:08:29.938Z,99014.76
2018-10-18T12:11:00.238Z,99022.34
2018-10-18T12:13:31.980Z,99021.69
2018-10-18T12:16:01.949Z,99024.39
2018-10-18T12:18:31.402Z,99021.95
2018-10-18T12:21:00.016Z,99019.54
2018-10-18T12:23:33.985Z,99027.69
2018-10-18T12:26:08.377Z,99034.64
2018-10-18T12:28:43.945Z,99030.55
2018-10-18T12:31:17.720Z,99032.53
2018-10-18T12:33:53.953Z,99026.42
2018-10-18T12:36:26.589Z,99030.81
2018-10-18T12:38:57.339Z,99031.64
2018-10-18T12:41:26.978Z,99036.41
2018-10-18T12:43:56.395Z,99037.84
2018-10-18T12:46:27.482Z,99039.17
2018-10-18T12:48:57.505Z,99039.67
2018-10-18T12:51:26.844Z,99044.70
2018-10-18T12:53:56.012Z,99042.33
2018-10-18T12:56:26.317Z,99038.43
2018-10-18T12:58:59.770Z,99042.44
2018-10-18T13:01:36.795Z,99033.61
2018-10-18T13:04:07.192Z,99033.79
2018-10-18T13:06:37.848Z,99029.78
2018-10-18T13:09:14.385Z,99026.19
2018-10-18T13:11:46.028Z,99031.39
2018-10-18T13:14:14.903Z,99033.58
2018-10-18T13:16:44.307Z,99040.55
2018-10-18T13:19:14.394Z,99035.59
2018-10-18T13:21:45.724Z,99041.41
2018-10-18T13:24:15.255Z,99035.31
2018-10-18T13:26:46.143Z,99028.23
2018-10-18T13:29:15.267Z,99024.80
2018-10-18T13:31:44.317Z,99030.09
2018-10-18T13:34:13.247Z,99020.62
2018-10-18T13:36:42.266Z,99022.23
2018-10-18T13:39:14.936Z,99017.15
2018-10-18T13:41:45.174Z,99016.39
2018-10-18T13:44:14.401Z,99009.32
2018-10-18T13:46:43.357Z,99007.20
2018-10-18T13:49:13.732Z,99002.97
2018-10-18T13:51:42.190Z,99004.69
2018-10-18T13:54:11.880Z,99013.72
2018-10-18T13:56:41.049Z,99014.37
2018-10-18T13:59:20.685Z,99022.20
2018-10-18T14:01:50.198Z,99020.62
2018-10-18T14:04:18.550Z,99024.25
2018-10-18T14:06:48.090Z,99026.05
2018-10-18T14:09:18.551Z,99024.56
2018-10-18T14:11:48.955Z,99023.67
2018-10-18T14:14:19.846Z,99026.97
2018-10-18T14:16:57.537Z,99026.44
2018-10-18T14:19:28.203Z,99035.59
2018-10-18T14:21:58.568Z,99040.00
2018-10-18T14:24:28.386Z,99036.73
2018-10-18T14:26:57.264Z,99033.06
2018-10-18T14:29:26.563Z,99034.63
2018-10-18T14:31:54.981Z,99027.83
2018-10-18T14:34:23.732Z,99033.52
2018-10-18T14:36:53.259Z,99038.03
2018-10-18T14:39:23.700Z,99037.64
2018-10-18T14:41:53.423Z,99038.83
2018-10-18T14:44:22.039Z,99037.50
2018-10-18T14:46:52.832Z,99034.84
2018-10-18T14:49:23.364Z,99034.58
2018-10-18T14:51:52.069Z,99030.93
2018-10-18T14:54:24.116Z,99026.41
2018-10-18T14:56:53.125Z,99026.41
2018-10-18T14:59:23.238Z,99025.48
2018-10-18T15:01:54.724Z,99025.55
2018-10-18T15:04:24.220Z,99025.02
2018-10-18T15:06:53.090Z,99031.16
2018-10-18T15:09:22.078Z,99027.97
2018-10-18T15:11:51.627Z,99030.63
2018-10-18T15:14:21.326Z,99030.42
2018-10-18T15:16:52.215Z,99029.38
2018-10-18T15:19:21.207Z,99032.77
2018-10-18T15:21:49.363Z,99033.83
2018-10-18T15:24:21.606Z,99029.84
2018-10-18T15:26:53.396Z,99039.67
2018-10-18T15:29:23.996Z,99034.21
2018-10-18T15:31:55.362Z,99030.07
2018-10-18T15:34:26.022Z,99032.17
2018-10-18T15:36:59.101Z,99033.30
2018-10-18T15:39:29.680Z,99035.72
2018-10-18T15:42:03.084Z,99034.59
2018-10-18T15:44:37.234Z,99030.31
2018-10-18T15:47:08.049Z,99028.72
2018-10-18T15:49:38.255Z,99034.95
2018-10-18T15:52:16.760Z,99033.19
2018-10-18T15:54:54.923Z,99034.59
2018-10-18T15:57:25.295Z,99040.09
2018-10-18T15:59:57.069Z,99035.80
2018-10-18T16:02:28.998Z,99037.26
2018-10-18T16:05:04.566Z,99038.28
2018-10-18T16:07:34.329Z,99042.21
2018-10-18T16:10:06.546Z,99038.18
2018-10-18T16:12:36.316Z,99044.50
2018-10-18T16:15:05.586Z,99042.90
2018-10-18T16:17:34.249Z,99052.39
2018-10-18T16:20:03.154Z,99058.43
2018-10-18T16:22:33.795Z,99062.13
2018-10-18T16:25:33.406Z,99060.61
2018-10-18T16:28:01.733Z,99073.67
2018-10-18T16:30:29.734Z,99073.49
2018-10-18T16:32:59.526Z,99077.61
2018-10-18T16:35:28.048Z,99071.42
2018-10-18T16:37:56.697Z,99080.56
2018-10-18T16:40:24.979Z,99089.34
2018-10-18T16:42:53.902Z,99087.51
2018-10-18T16:45:22.446Z,99095.31
2018-10-18T16:47:50.549Z,99091.87
2018-10-18T16:50:19.452Z,99096.00
2018-10-18T16:52:48.593Z,99096.13
2018-10-18T16:55:18.164Z,99098.23
2018-10-18T16:57:46.016Z,99097.16
2018-10-18T17:00:56.055Z,99094.17
2018-10-18T17:03:28.084Z,99107.59
2018-10-18T17:05:57.333Z,99119.56
2018-10-18T17:08:25.452Z,99119.30
2018-10-18T17:10:56.048Z,99121.08
2018-10-18T17:13:23.822Z,99117.59
2018-10-18T17:15:52.472Z,99126.53
2018-10-18T17:18:20.198Z,99124.70
2018-10-18T17:20:47.855Z,99124.61
2018-10-18T17:23:15.532Z,99135.69
2018-10-18T17:25:43.558Z,99133.59
2018-10-18T17:28:11.883Z,99138.48
2018-10-18T17:30:40.518Z,99138.94
2018-10-18T17:33:08.344Z,99142.14
2018-10-18T17:35:36.339Z,99141.84
2018-10-18T17:38:03.945Z,99149.50
2018-10-18T17:40:32.602Z,99154.03
2018-10-18T17:43:06.312Z,99152.20
2018-10-18T17:45:34.128Z,99160.27
2018-10-18T17:48:02.322Z,99155.50
2018-10-18T17:50:36.539Z,99155.20
2018-10-18T17:53:06.507Z,99156.16
2018-10-18T17:55:34.363Z,99160.27
2018-10-18T17:58:01.992Z,99157.26
2018-10-18T18:00:37.479Z,99160.05
2018-10-18T18:03:05.408Z,99166.78
2018-10-18T18:05:33.580Z,99165.73
2018-10-18T18:08:02.614Z,99167.06
2018-10-18T18:13:09.682Z,99173.66
2018-10-18T18:15:37.519Z,99178.03
2018-10-18T18:18:10.543Z,99176.20
2018-10-18T18:20:44.271Z,99181.84
2018-10-18T18:23:14.215Z,99183.72
2018-10-18T18:25:46.003Z,99186.81
2018-10-18T18:28:15.737Z,99193.06
2018-10-18T18:30:44.345Z,99192.55
2018-10-18T18:33:13.176Z,99193.83
2018-10-18T18:35:49.690Z,99199.07
2018-10-18T18:38:24.487Z,99199.89
2018-10-18T18:41:30.196Z,99201.80
2018-10-18T18:44:09.437Z,99208.45
2018-10-18T18:46:38.736Z,99211.55
2018-10-18T18:49:14.284Z,99213.74
2018-10-18T18:51:49.472Z,99214.78
2018-10-18T18:54:29.323Z,99216.61
2018-10-18T18:57:00.482Z,99224.61
2018-10-18T18:59:33.721Z,99223.29
2018-10-18T19:02:25.242Z,99227.66
2018-10-18T19:04:55.911Z,99223.02
2018-10-18T19:07:25.186Z,99225.34
2018-10-18T19:09:53.394Z,99226.20
2018-10-18T19:12:22.313Z,99228.92
2018-10-18T19:15:00.294Z,99232.47
2018-10-18T19:17:41.690Z,99242.20
2018-10-18T19:20:10.007Z,99231.64
2018-10-18T19:22:39.974Z,99233.38
2018-10-18T19:27:51.829Z,99237.88
2018-10-18T19:30:27.974Z,99237.39
2018-10-18T19:33:07.855Z,99237.39
2018-10-18T19:35:44.288Z,99241.34
2018-10-18T19:38:14.573Z,99235.61
2018-10-18T19:40:42.274Z,99246.58
2018-10-18T19:43:10.885Z,99249.63
2018-10-18T19:45:38.925Z,99245.18
2018-10-18T19:48:07.711Z,99249.63
2018-10-18T19:50:38.565Z,99250.12
2018-10-18T19:53:11.109Z,99247.45
2018-10-18T19:55:40.249Z,99251.03
2018-10-18T19:58:08.716Z,99251.03
2018-10-18T20:00:36.960Z,99253.67
2018-10-18T20:03:07.471Z,99253.63
2018-10-18T20:05:35.268Z,99251.91
2018-10-18T20:08:05.458Z,99252.27
2018-10-18T20:13:46.298Z,99256.16
2018-10-18T20:16:20.264Z,99261.44
2018-10-18T20:18:50.178Z,99260.65
2018-10-18T20:21:22.764Z,99259.73
2018-10-18T20:23:57.563Z,99257.97
2018-10-18T20:26:29.794Z,99259.29
2018-10-18T20:29:03.337Z,99260.53
2018-10-18T20:31:32.364Z,99257.92
2018-10-18T20:33:59.930Z,99256.56
2018-10-18T20:36:27.772Z,99256.56
2018-10-18T20:39:07.921Z,99263.16
2018-10-18T20:41:43.084Z,99261.84
2018-10-18T20:44:19.666Z,99261.44
2018-10-18T20:46:54.639Z,99266.72
2018-10-18T20:52:15.197Z,99265.35
2018-10-18T20:54:43.813Z,99273.73
2018-10-18T20:57:14.159Z,99275.09
2018-10-18T20:59:41.663Z,99271.66
2018-10-18T21:02:10.073Z,99272.08
2018-10-18T21:04:37.577Z,99271.30
2018-10-18T21:07:05.191Z,99273.52
2018-10-18T21:09:33.696Z,99273.11
2018-10-18T21:12:01.842Z,99276.16
2018-10-18T21:14:29.561Z,99268.77
2018-10-18T21:16:58.474Z,99278.42
2018-10-18T21:19:26.567Z,99274.09
2018-10-18T21:21:55.353Z,99269.15
2018-10-18T21:24:25.091Z,99263.41
2018-10-18T21:26:53.466Z,99263.83
2018-10-18T21:29:22.003Z,99276.16
2018-10-18T21:31:49.665Z,99267.49
2018-10-18T21:34:17.854Z,99269.66
2018-10-18T21:36:46.224Z,99265.70
2018-10-18T21:39:21.639Z,99256.44
2018-10-18T21:41:49.170Z,99255.63
2018-10-18T21:44:17.782Z,99265.36
2018-10-18T21:46:46.752Z,99260.49
2018-10-18T21:49:18.253Z,99257.32
2018-10-18T21:51:47.762Z,99255.70
2018-10-18T21:54:15.939Z,99253.03
2018-10-18T21:56:44.376Z,99259.13
2018-10-18T21:59:12.124Z,99260.91
2018-10-18T22:01:40.304Z,99258.27
2018-10-18T22:04:08.846Z,99259.17
2018-10-18T22:06:36.701Z,99252.13
2018-10-18T22:09:06.511Z,99248.69
2018-10-18T22:11:36.282Z,99254.43
2018-10-18T22:14:04.632Z,99255.70
2018-10-18T22:16:32.395Z,99257.52
2018-10-18T22:18:59.876Z,99254.87
2018-10-18T22:21:27.346Z,99258.88
2018-10-18T22:23:54.907Z,99260.16
2018-10-18T22:26:22.713Z,99261.03
2018-10-18T22:28:50.605Z,99253.11
2018-10-18T22:31:18.342Z,99254.43
2018-10-18T22:33:47.032Z,99258.84
2018-10-18T22:36:16.843Z,99256.73
2018-10-18T22:38:46.610Z,99251.09
2018-10-18T22:41:16.386Z,99253.39
2018-10-18T22:43:44.513Z,99251.16
2018-10-18T22:46:12.536Z,99256.10
2018-10-18T22:48:41.038Z,99249.84
2018-10-18T22:51:09.746Z,99251.09
2018-10-18T22:53:37.532Z,99251.53
2018-10-18T22:56:07.412Z,99253.80
2018-10-18T22:58:36.235Z,99254.67
2018-10-18T23:01:07.044Z,99256.44
2018-10-18T23:03:35.058Z,99259.00
2018-10-18T23:06:04.057Z,99252.48
2018-10-18T23:08:35.512Z,99259.57
2018-10-18T23:11:03.595Z,99259.61
2018-10-18T23:13:32.671Z,99258.74
2018-10-18T23:16:08.351Z,99258.74
2018-10-18T23:18:36.388Z,99259.16
2018-10-18T23:21:05.043Z,99257.05
2018-10-18T23:23:34.312Z,99254.45
2018-10-18T23:26:02.947Z,99264.63
2018-10-18T23:28:30.525Z,99261.50
2018-10-18T23:30:59.021Z,99247.94
2018-10-18T23:33:26.468Z,99257.24
2018-10-18T23:35:54.914Z,99255.55
2018-10-18T23:38:24.291Z,99253.78
2018-10-18T23:40:52.247Z,99259.51
2018-10-18T23:43:20.410Z,99253.36
2018-10-18T23:45:52.863Z,99254.72
2018-10-18T23:48:21.714Z,99254.69
2018-10-18T23:50:50.631Z,99252.05
2018-10-18T23:53:18.730Z,99246.36
2018-10-18T23:55:47.396Z,99239.72
2018-10-18T23:58:14.835Z,99243.69
